Latest Coastal Weather Observations for Coolangatta (QLD)

IDN60701

Issued at 11:02 pm EDT Monday 17 December 2018 (issued every 10 minutes, with the page automatically refreshed every 10 minutes)

About coastal observations | Map of coastal stations | Coastal observations for NSW | Marine services | Other Formats
Station Details ID: 040717 Name: COOLANGATTA Lat: -28.17 Lon: 153.51 Height: 4.0 m
Data from the previous 72 hours. | See also: Recent months at Coolangatta (QLD)
Date/Time
EDT
Wind Sea
Height
m
Swell Vis
km
Cloud Weather Temp
°C
Press
hPa
Rain since
9am
mm
Dir  Spd
kts
Gust
kts
Height
m
Period
s
Dir
17/11:00pm ENE 7 10 - - - - 10 Partly cloudy - 22.8 1012.7 9.8
17/10:30pm ENE 7 9 - - - - 10 Partly cloudy - 22.7 1012.6 9.8
17/10:00pm ENE 6 9 - - - - 10 Cloudy - 22.7 1012.7 9.8
17/09:30pm ENE 7 9 - - - - 10 Partly cloudy - 22.7 1012.7 9.8
17/09:00pm ENE 9 11 - - - - 10 Partly cloudy - 22.5 1012.4 9.8
17/08:33pm E 9 12 - - - - 10 Partly cloudy - 21.9 1012.3 9.8
17/08:30pm E 10 13 - - - - 10 Partly cloudy - 21.9 1012.3 9.8
17/08:00pm ENE 12 16 - - - - 10 Partly cloudy - 21.9 1012.0 9.8
17/07:55pm ENE 13 17 - - - - 10 Partly cloudy - 21.9 1012.0 9.8
17/07:30pm NNE 3 9 - - - - 1 Partly cloudy - 22.0 1012.0 9.2
17/07:16pm N 5 7 - - - - 6 Partly cloudy - 21.8 1011.7 5.4
17/07:00pm N 6 8 - - - - 10 Cloudy Drizzle 21.9 1011.4 5.0
17/06:58pm N 7 8 - - - - 10 Partly cloudy - 21.9 1011.4 5.0
17/06:41pm NNE 8 11 - - - - 10 Partly cloudy - 21.9 1011.2 5.0
17/06:30pm NNE 8 11 - - - - 6 Partly cloudy - 22.0 1011.2 5.0
17/06:28pm N 9 11 - - - - 5 Partly cloudy - 22.0 1011.2 5.0
17/06:00pm NNE 10 12 - - - - 3 Partly cloudy - 22.0 1010.9 4.2
17/05:30pm NNE 7 10 - - - - 3 Partly cloudy - 22.5 1010.7 1.6
17/05:17pm NE 10 14 - - - - 6 Partly cloudy - 22.8 1010.5 0.8
17/05:15pm NE 9 14 - - - - 7 Partly cloudy - 23.1 1010.4 0.8
17/05:00pm E 10 13 - - - - 10 Partly cloudy - 24.4 1010.3 0.8
17/04:30pm ESE 9 12 - - - - 10 Partly cloudy - 24.9 1010.2 0.8
17/04:00pm ESE 11 13 - - - - 10 Cloudy - 25.0 1010.1 0.8
17/03:30pm ENE 9 11 - - - - 10 Partly cloudy - 25.1 1010.3 0.8
17/03:00pm ENE 8 11 - - - - 10 Partly cloudy - 24.8 1010.3 0.8
17/02:30pm ESE 7 12 - - - - 10 Partly cloudy - 24.6 1010.6 0.8
17/02:00pm ENE 6 9 - - - - 10 Cloudy - 24.1 1010.8 0.8
17/01:30pm NNE 1 4 - - - - 10 Partly cloudy - 22.8 1010.8 0.8
17/01:27pm NNE 2 4 - - - - 10 Partly cloudy - 22.9 1010.9 0.8
17/01:18pm N 3 5 - - - - 8 Partly cloudy - 22.6 1011.0 0.8
17/01:06pm N 5 8 - - - - 5 Partly cloudy - 22.7 1011.0 0.6
17/01:00pm N 6 8 - - - - 10 Cloudy Drizzle 22.7 1011.0 0.6
17/12:45pm N 8 11 - - - - 9 Partly cloudy - 23.0 1011.1 0.6
17/12:30pm NNE 4 7 - - - - 10 Partly cloudy - 24.0 1011.2 0.6
17/12:00pm NE 6 8 - - - - 10 Partly cloudy - 23.1 1011.4 0.6
17/11:30am N 6 8 - - - - 10 Partly cloudy - 23.5 1011.5 0.6
17/11:00am NNW 3 5 - - - - 10 Partly cloudy - 22.6 1011.6 0.4
17/10:58am NNW 3 6 - - - - 10 Partly cloudy - 22.5 1011.6 0.4
17/10:48am N 3 5 - - - - 6 Partly cloudy - 22.1 1011.7 0.4
17/10:43am N 3 5 - - - - 9 Partly cloudy - 21.9 1011.7 0.4
17/10:30am NNE 4 5 - - - - 5 Partly cloudy - 21.7 1011.8 0.2
17/10:00am N 9 14 - - - - 2 Cloudy Drizzle 21.6 1011.9 30.6
17/09:42am N 10 19 - - - - 6 Partly cloudy - 21.8 1011.9 28.2
17/09:30am N 6 7 - - - - 10 Partly cloudy - 23.3 1011.6 28.0
17/09:00am NNE 4 7 - - - - 10 Partly cloudy - 23.5 1011.5 28.0
17/08:30am NE 4 6 - - - - 10 Partly cloudy - 22.4 1011.6 28.0
17/08:16am NNE 6 9 - - - - 10 Partly cloudy - 22.1 1011.6 28.0
17/08:13am NE 7 9 - - - - 10 Partly cloudy - 22.1 1011.5 28.0
17/08:00am NE 7 9 - - - - 4 Partly cloudy - 22.0 1011.4 28.0
17/07:52am NNE 4 7 - - - - 6 Partly cloudy - 21.9 1011.4 27.8
17/07:46am NNE 3 5 - - - - 10 Cloudy - 21.8 1011.3 27.2
17/07:36am NNE 3 5 - - - - 6 Partly cloudy - 21.8 1011.3 27.2
17/07:30am NNE 3 5 - - - - 4 Partly cloudy - 21.8 1011.2 27.2
17/07:24am N 3 5 - - - - 6 Partly cloudy - 21.9 1011.2 27.0
17/07:13am NNW 6 9 - - - - 10 Partly cloudy - 21.7 1011.0 26.2
17/07:00am NNW 6 11 - - - - 10 Cloudy Drizzle 21.6 1010.7 26.2
17/06:47am CALM 0 0 - - - - 10 Partly cloudy - 22.4 1010.4 26.2
17/06:30am CALM 0 0 - - - - 10 Partly cloudy - 22.3 1010.2 26.2
17/06:00am SW 4 6 - - - - 10 Partly cloudy - 22.2 1009.9 26.2
17/05:49am W 4 6 - - - - 10 Partly cloudy - 22.1 1009.7 26.2
17/05:31am CALM 0 0 - - - - 6 Partly cloudy - 21.9 1009.5 26.2
17/05:30am CALM 0 0 - - - - 7 Partly cloudy - 21.9 1009.5 26.2
17/05:28am CALM 0 0 - - - - 7 Partly cloudy - 21.9 1009.4 26.2
17/05:00am CALM 0 0 - - - - 5 Partly cloudy - 21.8 1009.2 26.2
17/04:30am CALM 0 0 - - - - 6 Partly cloudy - 22.0 1009.2 26.0
17/04:28am CALM 0 0 - - - - 6 Partly cloudy - 22.0 1009.1 26.0
17/04:00am CALM 0 0 - - - - 8 Cloudy - 22.1 1009.1 26.0
17/03:30am NNW 5 6 - - - - 8 - - 22.4 1009.5 26.0
17/03:00am N 5 7 - - - - 8 Partly cloudy - 22.5 1009.4 26.0
17/02:30am N 4 5 - - - - 10 Partly cloudy - 22.7 1009.6 26.0
17/02:00am N 6 7 - - - - 10 Partly cloudy - 23.0 1010.0 26.0
17/01:30am N 4 6 - - - - 9 - - 22.7 1010.2 26.0
17/01:00am N 4 6 - - - - 9 Cloudy Showers 22.6 1010.3 25.6
17/12:57am N 4 6 - - - - 9 Partly cloudy - 22.7 1010.3 25.6
17/12:30am N 3 6 - - - - 6 Partly cloudy - 22.7 1010.5 25.4
17/12:25am N 4 6 - - - - 6 Partly cloudy - 22.7 1010.5 25.4
17/12:11am NNW 3 4 - - - - 10 Partly cloudy - 22.7 1010.8 25.4
17/12:00am NNW 4 6 - - - - 9 Partly cloudy - 22.7 1011.0 25.4
 
Date/Time
EDT
Wind Sea
Height
m
Swell Vis
km
Cloud Weather Temp
°C
Press
hPa
Rain since
9am
mm
Dir  Spd
kts
Gust
kts
Height
m
Period
s
Dir
16/11:48pm N 4 8 - - - - 9 Partly cloudy - 22.8 1011.0 25.4
16/11:30pm N 4 6 - - - - 9 Partly cloudy - 22.8 1011.0 25.4
16/11:00pm N 9 11 - - - - 10 Partly cloudy - 22.9 1010.8 25.2
16/10:30pm NNE 9 12 - - - - 10 Partly cloudy - 22.8 1010.9 25.2
16/10:00pm NE 6 8 - - - - 10 Cloudy Drizzle 22.9 1011.2 25.2
16/09:30pm NNE 9 11 - - - - 7 Partly cloudy - 22.8 1010.9 24.8
16/09:00pm NNE 9 12 - - - - 9 Partly cloudy - 22.8 1010.7 23.8
16/08:30pm NNE 8 11 - - - - 7 Partly cloudy - 22.7 1010.7 23.8
16/08:28pm NNE 8 11 - - - - 7 Partly cloudy - 22.7 1010.7 23.6
16/08:00pm NNE 10 13 - - - - 6 Partly cloudy - 22.8 1010.5 22.6
16/07:57pm NNE 11 14 - - - - 6 Partly cloudy - 22.8 1010.4 22.2
16/07:30pm NNE 12 17 - - - - 8 Partly cloudy - 23.0 1010.1 21.4
16/07:00pm NE 13 17 - - - - 9 Cloudy Drizzle 23.0 1009.6 20.6
16/06:30pm NE 10 13 - - - - 9 Partly cloudy - 22.9 1009.4 20.2
16/06:17pm NE 10 14 - - - - 8 Partly cloudy - 22.7 1009.4 20.2
16/06:11pm NE 9 13 - - - - 7 Partly cloudy - 22.7 1009.3 20.0
16/06:00pm NNE 9 12 - - - - 6 Partly cloudy - 22.7 1009.1 19.8
16/05:30pm N 11 17 - - - - 5 Partly cloudy - 22.4 1009.2 16.2
16/05:00pm N 13 17 - - - - 4 Partly cloudy - 22.6 1009.0 13.6
16/04:56pm N 13 17 - - - - 4 Partly cloudy - 22.6 1008.9 13.0
16/04:30pm N 14 18 - - - - 4 Partly cloudy - 22.3 1009.0 8.0
16/04:00pm NNE 9 12 - - - - 5 Cloudy Rain 22.9 1008.8 5.0
16/03:34pm NNE 12 15 - - - - 6 Partly cloudy - 23.2 1009.1 3.2
16/03:33pm NE 12 15 - - - - 7 Partly cloudy - 23.3 1009.1 3.2
16/03:30pm NE 12 16 - - - - 7 Partly cloudy - 23.2 1009.1 3.2
16/03:14pm NE 11 16 - - - - 8 Partly cloudy - 23.4 1009.5 2.8
16/03:00pm NE 13 16 - - - - 5 Partly cloudy - 23.4 1009.5 2.6
16/02:55pm NE 13 17 - - - - 6 Partly cloudy - 23.5 1009.6 2.2
16/02:54pm NE 14 17 - - - - 7 Partly cloudy - 23.5 1009.6 2.0
16/02:30pm NE 12 16 - - - - 9 Partly cloudy - 23.5 1009.9 1.2
16/02:25pm NE 11 15 - - - - 8 Partly cloudy - 23.6 1009.9 1.2
16/02:02pm NE 12 14 - - - - 8 Partly cloudy - 23.7 1009.9 1.0
16/02:00pm NE 12 17 - - - - 8 Cloudy - 23.7 1009.8 1.0
16/01:30pm NE 12 17 - - - - 8 Partly cloudy - 23.8 1010.3 0.4
16/01:05pm NE 11 13 - - - - 10 Partly cloudy - 24.2 1010.6 0.2
16/01:00pm NE 10 13 - - - - 10 Cloudy Drizzle 24.2 1010.7 0.2
16/12:59pm NE 10 13 - - - - 10 Partly cloudy - 24.2 1010.7 0.2
16/12:50pm NE 9 11 - - - - 6 Partly cloudy - 24.4 1010.7 0.2
16/12:30pm NNE 9 12 - - - - 10 Partly cloudy - 24.6 1011.1 0.0
16/12:00pm NE 9 13 - - - - 10 Partly cloudy - 24.8 1011.1 0.0
16/11:30am NE 10 13 - - - - 10 Partly cloudy - 24.8 1011.5 0.0
16/11:00am NE 8 12 - - - - 10 Partly cloudy - 24.7 1011.6 0.0
16/10:30am NE 9 12 - - - - 10 Partly cloudy - 24.5 1011.6 0.0
16/10:00am NE 9 13 - - - - 10 Cloudy - 24.6 1011.6 0.8
16/09:30am NNE 8 11 - - - - 10 Partly cloudy - 24.4 1011.8 0.8
16/09:00am NNE 8 11 - - - - 10 Partly cloudy - 24.3 1011.9 0.8
16/08:30am NE 9 11 - - - - 10 Partly cloudy - 24.6 1011.5 0.8
16/08:00am NE 9 12 - - - - 10 Partly cloudy - 24.1 1011.3 0.8
16/07:30am NNE 8 10 - - - - 10 Partly cloudy - 24.0 1011.4 0.8
16/07:00am NE 7 11 - - - - 10 Cloudy - 23.9 1011.2 0.8
16/06:31am NE 7 10 - - - - 10 Partly cloudy - 23.8 1010.7 0.8
16/06:30am NNE 7 10 - - - - 10 Partly cloudy - 23.8 1010.7 0.8
16/06:21am NNE 7 9 - - - - 10 Partly cloudy - 23.8 1010.6 0.8
16/06:00am NNE 8 11 - - - - 10 Partly cloudy - 23.8 1010.4 0.8
16/05:30am NNE 9 11 - - - - 10 Partly cloudy - 23.7 1010.3 0.8
16/05:00am NNE 10 13 - - - - 10 Cloudy - 23.8 1009.7 0.8
16/04:30am NE 10 14 - - - - 10 Partly cloudy - 23.8 1009.6 0.8
16/04:00am NE 10 13 - - - - 10 Cloudy - 23.7 1009.6 0.8
16/03:30am NNE 9 11 - - - - 10 Partly cloudy - 23.6 1009.5 0.8
16/03:00am NE 10 13 - - - - 10 Partly cloudy - 23.8 1009.3 0.8
16/02:30am NE 11 14 - - - - 10 Partly cloudy - 23.6 1009.4 0.4
16/02:08am NE 10 15 - - - - 10 Partly cloudy - 23.4 1009.9 0.4
16/02:00am NE 8 14 - - - - 8 Partly cloudy - 23.4 1009.8 0.4
16/01:58am NNE 7 12 - - - - 6 Partly cloudy - 23.4 1009.8 0.4
16/01:46am N 10 14 - - - - 6 Partly cloudy - 23.5 1010.2 0.4
16/01:38am NNE 11 15 - - - - 6 Partly cloudy - 23.4 1010.2 0.4
16/01:30am NNE 11 14 - - - - 10 Partly cloudy - 23.5 1010.3 0.2
16/01:00am NNE 9 12 - - - - 7 Mostly cloudy Drizzle 23.5 1010.6 0.2
16/12:30am NNE 9 12 - - - - 10 Partly cloudy - 23.6 1010.9 0.2
16/12:28am NNE 9 12 - - - - 10 Partly cloudy - 23.6 1010.9 0.2
16/12:21am NNE 9 12 - - - - 10 Partly cloudy - 23.6 1011.0 0.2
16/12:05am NNE 9 12 - - - - 6 Partly cloudy - 23.7 1011.2 0.0
16/12:00am NNE 9 13 - - - - 10 Cloudy - 23.8 1011.3 0.0
 
Date/Time
EDT
Wind Sea
Height
m
Swell Vis
km
Cloud Weather Temp
°C
Press
hPa
Rain since
9am
mm
Dir  Spd
kts
Gust
kts
Height
m
Period
s
Dir
15/11:45pm N 8 10 - - - - 10 Cloudy - 23.8 1011.5 0.0
15/11:30pm N 9 11 - - - - 10 Partly cloudy - 23.9 1011.5 0.0
15/11:00pm N 9 11 - - - - 10 Partly cloudy - 23.9 1011.4 0.0
15/10:30pm N 11 14 - - - - 10 Partly cloudy - 24.0 1011.2 0.0
15/10:00pm N 10 13 - - - - 10 Cloudy - 24.0 1010.6 0.0
15/09:30pm N 9 11 - - - - 10 Partly cloudy - 24.0 1010.6 0.0
15/09:00pm N 9 11 - - - - 10 Cloudy - 24.2 1010.4 0.0
15/08:30pm NNE 11 14 - - - - 10 Partly cloudy - 24.2 1009.9 0.0
15/08:23pm NNE 11 14 - - - - 10 Partly cloudy - 24.2 1010.0 0.0
15/08:10pm N 9 12 - - - - 10 Partly cloudy - 24.2 1009.7 0.0
15/08:00pm N 10 13 - - - - 10 Partly cloudy - 24.2 1009.8 0.0
15/07:30pm N 11 14 - - - - 10 Cloudy - 24.4 1009.6 0.0
15/07:00pm NNE 14 18 - - - - 10 Cloudy - 24.5 1009.0 0.0
15/06:30pm NNE 12 16 - - - - 10 Cloudy - 24.8 1008.2 0.0
15/06:00pm NNE 11 14 - - - - 10 Cloudy - 25.1 1008.3 0.0
15/05:30pm NNE 12 15 - - - - 10 Partly cloudy - 25.3 1008.1 0.0
15/05:03pm NNE 14 20 - - - - 9 Partly cloudy - 24.4 1007.9 0.0
15/05:00pm NNE 14 20 - - - - 9 Partly cloudy - 24.5 1008.0 0.0
15/04:49pm N 11 17 - - - - 6 Partly cloudy - 24.9 1008.2 0.0
15/04:30pm NNE 14 18 - - - - 10 Partly cloudy - 25.7 1008.0 0.0
15/04:00pm NNE 15 19 - - - - 10 Mostly cloudy - 26.1 1007.9 0.0
15/03:30pm NNE 13 17 - - - - 10 Partly cloudy - 28.3 1008.1 0.0
15/03:00pm N 12 16 - - - - 10 Cloudy - 27.1 1008.5 0.0
15/02:30pm NNE 13 16 - - - - 10 Partly cloudy - 26.8 1008.5 0.0
15/02:00pm NNE 14 18 - - - - 10 Partly cloudy - 28.0 1008.6 0.0
15/01:30pm NNE 15 19 - - - - 10 Partly cloudy - 27.4 1008.9 0.0
15/01:00pm NNE 13 17 - - - - 10 Mostly clear - 27.1 1009.3 0.0
15/12:30pm NNE 15 20 - - - - 10 Partly cloudy - 27.8 1009.6 0.0
15/12:00pm NNE 16 19 - - - - 10 Partly cloudy - 27.1 1009.8 0.0
15/11:30am NNE 15 19 - - - - 10 Partly cloudy - 27.8 1009.9 0.0
15/11:00am NNE 13 16 - - - - 10 - - 27.0 1009.9 0.0
15/10:30am N 13 18 - - - - 10 - - 28.1 1009.3 0.0
15/10:00am N 17 21 - - - - 10 Mostly clear Rain 26.8 1009.2 1.4
15/09:30am N 18 23 - - - - 10 Partly cloudy - 26.7 1009.3 1.2
15/09:00am N 17 23 - - - - 10 Partly cloudy - 26.1 1009.2 1.2
15/08:30am NNW 16 24 - - - - 10 Partly cloudy - 26.4 1009.1 1.2
15/08:03am NNW 16 22 - - - - 10 Cloudy - 25.0 1009.0 1.0
15/08:00am NNW 16 22 - - - - 10 Cloudy - 24.8 1009.0 1.0
15/07:33am NNW 12 20 - - - - 10 Cloudy - 24.2 1008.7 1.0
15/07:30am NNW 11 20 - - - - 10 Cloudy - 24.2 1008.7 1.0
15/07:00am NNW 9 14 - - - - 10 Cloudy - 24.0 1008.3 1.0
15/06:30am NNW 9 16 - - - - 10 Partly cloudy - 24.1 1007.3 1.0
15/06:00am N 11 15 - - - - 10 Partly cloudy - 24.1 1007.5 1.0
15/05:50am N 13 19 - - - - 10 Partly cloudy - 24.1 1007.0 1.0
15/05:30am NNE 17 25 - - - - 9 Partly cloudy - 24.2 1006.6 1.0
15/05:00am NNE 15 19 - - - - 10 Cloudy - 24.2 1006.9 1.0
15/04:30am NNE 17 22 - - - - 10 Partly cloudy - 24.2 1006.3 1.0
15/04:00am N 11 16 - - - - 10 Mostly cloudy - 23.8 1006.2 1.0
15/03:30am NNW 10 14 - - - - 10 Cloudy - 23.4 1005.7 1.0
15/03:00am NW 6 8 - - - - 10 Partly cloudy - 23.6 1006.3 1.0
15/02:30am N 12 15 - - - - 9 Partly cloudy - 24.0 1006.3 1.0
15/02:00am NNE 14 18 - - - - 10 Partly cloudy - 24.0 1007.0 1.0
15/01:30am NNE 13 16 - - - - 10 Partly cloudy - 24.0 1007.0 1.0
15/01:00am N 12 17 - - - - 10 Cloudy Drizzle 23.8 1007.4 1.0
15/12:41am N 14 17 - - - - 10 Partly cloudy - 23.8 1007.4 1.0
15/12:30am N 13 18 - - - - 10 Partly cloudy - 23.8 1007.2 1.0

Other Formats:

Comma delimited format used in spreadsheet applications
http://www.bom.gov.au/fwo/IDN60701/IDN60701.94592.axf

JavaScript Object Notation format (JSON) in row-major order
http://www.bom.gov.au/fwo/IDN60701/IDN60701.94592.json